Home   Weather   France   Toulouse   Past weeks
Flag for France

Past Weather in Toulouse, Occitanie, France — Yesterday and Last 2 Weeks

Currently: 61 °F. Passing clouds. (Weather station: Toulouse / Blagnac, France). See more current weather

Past Weather in Toulouse — Graph

°F

Toulouse Temperature Yesterday

Maximum temperature yesterday: 63 °F (at 4:30 pm)
Minimum temperature yesterday: 37 °F (at 8:00 am)
Average temperature yesterday: 51 °F

High & Low Weather Summary for the Past Weeks

 TemperatureHumidityPressure
High72 °F (Mar 31, 3:30 pm)100% (Apr 11, 1:00 pm)30.39 "Hg (Apr 11, 1:00 pm)
Low34 °F (Apr 7, 6:00 am)24% (Apr 14, 4:30 pm)29.83 "Hg (Apr 11, 4:30 am)
Average53 °F60%30.10 "Hg
* Reported Mar 31 3:00 pm — Apr 15 3:00 pm, Toulouse. Weather by CustomWeather, © 2021

Note: Actual official high and low records may vary slightly from our data, if they occured in-between our weather recording intervals... More about our weather records

Toulouse Weather History for the Previous 24 Hours

Scroll right to see more
 ConditionsComfort  
Time TempWeatherWind HumidityBarometerVisibility
3:00 pm
Thu, Apr 15
59 °FPassing clouds.9 mph36%30.09 "HgN/A
2:30 pm59 °FPassing clouds.9 mph36%30.12 "HgN/A
2:00 pm59 °FSunny.6 mph39%30.12 "Hg10 mi
1:30 pm57 °FPassing clouds.7 mph41%30.15 "HgN/A
1:00 pm57 °FSunny.3 mph41%30.15 "Hg10 mi
12:30 pm55 °FPassing clouds.6 mph44%30.15 "HgN/A
12:00 pm55 °FSunny.2 mph44%30.15 "Hg10 mi
11:30 am54 °FSunny.3 mph47%30.15 "Hg10 mi
11:00 am52 °FSunny.2 mph47%30.15 "Hg10 mi
10:30 am50 °FSunny.2 mph50%30.15 "Hg10 mi
9:30 am46 °FPassing clouds.3 mph53%30.15 "HgN/A
9:00 am45 °FPassing clouds.3 mph53%30.15 "HgN/A
8:30 am41 °FSunny.2 mph66%30.15 "Hg10 mi
8:00 am39 °FPassing clouds.3 mph65%30.15 "HgN/A
7:30 am36 °FSunny.1 mph70%30.15 "Hg10 mi
7:00 am36 °FPassing clouds.3 mph70%30.12 "HgN/A
6:30 am36 °FClear.6 mph70%30.12 "Hg10 mi
6:00 am37 °FClear.6 mph65%30.12 "Hg10 mi
5:30 am37 °FClear.5 mph65%30.12 "Hg10 mi
5:00 am39 °FClear.3 mph61%30.12 "Hg10 mi
4:30 am41 °FClear.5 mph57%30.12 "Hg10 mi
3:30 am39 °FClear.6 mph65%30.12 "Hg10 mi
3:00 am41 °FClear.6 mph61%30.12 "Hg10 mi
2:30 am43 °FClear.6 mph57%30.12 "Hg10 mi
2:00 am43 °FClear.8 mph57%30.15 "Hg10 mi
1:30 am45 °FClear.7 mph53%30.15 "Hg10 mi
1:00 am46 °FClear.7 mph50%30.15 "Hg10 mi
12:30 am46 °FClear.7 mph50%30.15 "Hg10 mi
12:00 am50 °FClear.9 mph43%30.12 "Hg10 mi
11:30 pm
Wed, Apr 14
52 °FClear.10 mph38%30.12 "Hg10 mi
11:00 pm52 °FClear.6 mph41%30.12 "Hg10 mi
10:30 pm52 °FClear.6 mph41%30.12 "Hg10 mi
10:00 pm54 °FClear.7 mph38%30.12 "Hg10 mi
9:30 pm54 °FClear.7 mph38%30.12 "Hg10 mi
9:00 pm54 °FClear.10 mph41%30.12 "Hg10 mi
8:30 pm59 °FSunny.10 mph34%30.09 "Hg10 mi
8:00 pm61 °FSunny.9 mph25%30.09 "Hg10 mi
7:30 pm61 °FSunny.8 mph25%30.09 "Hg10 mi
7:00 pm63 °FPassing clouds.8 mph24%30.09 "HgN/A
6:30 pm63 °FPassing clouds.9 mph27%30.09 "HgN/A
6:00 pm63 °FPassing clouds.10 mph25%30.09 "HgN/A
5:30 pm63 °FPassing clouds.8 mph24%30.09 "HgN/A
5:00 pm63 °FPassing clouds.10 mph25%30.12 "HgN/A
4:30 pm63 °FPassing clouds.7 mph24%30.12 "HgN/A
4:00 pm61 °FPassing clouds.9 mph27%30.12 "HgN/A
Weather by CustomWeather, © 2021

See weather overview